Aquilla, Alabama
Current Conditions -  °F | °C
As of 4:38 PM on Friday 19 Dec 2014 (Local Time) from KMEI Reporting Station
Moderate Rain Moderate Rain  
Wind Chill: 42°   Ceiling: 3500
Heat Index: 44°   Visibility: 5mi
Dew Point: 42°   Wind: 5mph
Humidity: 93%   Direction: 350°N
Pressure: 30.17"   Gusts: NA
Location:  31.6272°N, 88.354°W
Report Text: KMEI 192238Z 35004KT 5SM RA BR FEW009 OVC035 07/06 A3017 RMK AO2 P0004 T00670056
Loading
Personal Weather Stations






























Interactive Weather Map New forecast layout! Learn more

10-Day Weather Forecast

Advertisements
Track Severe Weather on mobile